createdAt,value
2023-11-14T00:01:37.805Z,11.65
2023-11-14T00:04:40.133Z,11.77
2023-11-14T00:07:42.309Z,9.18
2023-11-14T00:10:44.455Z,10.77
2023-11-14T00:13:47.415Z,10.83
2023-11-14T00:16:49.621Z,9.93
2023-11-14T00:19:53.063Z,10.45
2023-11-14T00:22:55.196Z,9.93
2023-11-14T00:25:57.351Z,10.10
2023-11-14T00:28:59.970Z,8.10
2023-11-14T00:32:02.166Z,8.10
2023-11-14T00:35:04.925Z,6.67
2023-11-14T00:38:07.086Z,7.82
2023-11-14T00:41:09.225Z,10.13
2023-11-14T00:44:11.951Z,6.50
2023-11-14T00:47:14.303Z,8.27
2023-11-14T00:50:16.495Z,12.15
2023-11-14T00:53:18.905Z,5.93
2023-11-14T00:56:21.021Z,7.90
2023-11-14T00:59:23.033Z,7.70
2023-11-14T01:02:25.298Z,6.47
2023-11-14T01:05:28.026Z,6.53
2023-11-14T01:08:30.109Z,9.20
2023-11-14T01:11:32.541Z,9.02
2023-11-14T01:14:34.712Z,10.63
2023-11-14T01:17:37.237Z,10.68
2023-11-14T01:20:39.465Z,12.03
2023-11-14T01:23:43.143Z,9.55
2023-11-14T01:26:45.286Z,8.73
2023-11-14T01:29:47.858Z,11.57
2023-11-14T01:32:49.986Z,10.05
2023-11-14T01:35:52.256Z,9.48
2023-11-14T01:38:54.276Z,9.98
2023-11-14T01:41:56.428Z,8.00
2023-11-14T01:44:58.461Z,8.80
2023-11-14T01:48:00.651Z,8.85
2023-11-14T01:51:03.730Z,7.68
2023-11-14T01:54:06.488Z,11.07
2023-11-14T01:57:11.310Z,10.50
2023-11-14T02:00:13.778Z,7.45
2023-11-14T02:03:16.709Z,9.27
2023-11-14T02:06:18.943Z,8.55
2023-11-14T02:09:22.263Z,15.70
2023-11-14T02:12:24.423Z,10.18
2023-11-14T02:15:27.739Z,14.20
2023-11-14T02:18:30.110Z,10.73
2023-11-14T02:21:32.301Z,11.18
2023-11-14T02:24:34.795Z,15.93
2023-11-14T02:27:37.140Z,12.30
2023-11-14T02:30:39.505Z,12.13
2023-11-14T02:33:42.063Z,13.03
2023-11-14T02:36:44.161Z,9.70
2023-11-14T02:39:46.274Z,12.23
2023-11-14T02:42:48.295Z,8.00
2023-11-14T02:45:50.352Z,14.80
2023-11-14T02:48:52.441Z,8.38
2023-11-14T02:51:55.017Z,8.93
2023-11-14T02:54:57.062Z,9.90
2023-11-14T02:57:59.209Z,7.80
2023-11-14T03:01:01.320Z,10.32
2023-11-14T03:04:03.539Z,9.18
2023-11-14T03:07:05.718Z,5.22
2023-11-14T03:10:08.133Z,9.37
2023-11-14T03:13:10.570Z,12.55
2023-11-14T03:16:13.752Z,10.82
2023-11-14T03:19:15.950Z,9.25
2023-11-14T03:22:18.048Z,11.20
2023-11-14T03:25:20.135Z,7.35
2023-11-14T03:28:22.870Z,10.38
2023-11-14T03:31:25.576Z,7.97
2023-11-14T03:34:27.718Z,7.00
2023-11-14T03:37:31.123Z,9.77
2023-11-14T03:40:33.284Z,11.32
2023-11-14T03:43:38.716Z,8.70
2023-11-14T03:46:41.113Z,9.50
2023-11-14T03:49:43.299Z,8.50
2023-11-14T03:52:45.422Z,11.70
2023-11-14T03:55:47.531Z,8.75
2023-11-14T03:58:50.722Z,8.27
2023-11-14T04:01:52.975Z,8.02
2023-11-14T04:04:55.097Z,10.63
2023-11-14T04:07:57.461Z,9.55
2023-11-14T04:10:59.625Z,7.50
2023-11-14T04:14:01.842Z,7.05
2023-11-14T04:17:05.007Z,7.30
2023-11-14T04:20:08.637Z,8.60
2023-11-14T04:23:11.539Z,7.90
2023-11-14T04:26:16.035Z,6.72
2023-11-14T04:29:18.381Z,9.45
2023-11-14T04:32:20.788Z,9.63
2023-11-14T04:35:22.969Z,7.75
2023-11-14T04:38:25.061Z,8.88
2023-11-14T04:41:30.491Z,8.45
2023-11-14T04:44:33.030Z,6.73
2023-11-14T04:47:35.149Z,8.55
2023-11-14T04:50:37.308Z,7.40
2023-11-14T04:53:39.420Z,9.70
2023-11-14T04:56:41.528Z,8.93
2023-11-14T04:59:43.638Z,11.45
2023-11-14T05:02:45.844Z,10.02
2023-11-14T05:05:47.987Z,7.03
2023-11-14T05:08:50.008Z,8.70
2023-11-14T05:11:52.175Z,10.02
2023-11-14T05:14:54.190Z,6.78
2023-11-14T05:17:58.286Z,7.77
2023-11-14T05:21:00.540Z,8.27
2023-11-14T05:24:02.601Z,6.47
2023-11-14T05:27:04.830Z,9.50
2023-11-14T05:30:11.997Z,8.57
2023-11-14T05:33:14.112Z,7.07
2023-11-14T05:36:16.208Z,8.20
2023-11-14T05:39:18.294Z,8.30
2023-11-14T05:42:20.399Z,6.43
2023-11-14T05:45:22.603Z,7.88
2023-11-14T05:48:24.965Z,7.03
2023-11-14T05:51:27.093Z,6.68
2023-11-14T05:54:29.249Z,11.43
2023-11-14T05:57:31.414Z,10.20
2023-11-14T06:00:33.526Z,8.75
2023-11-14T06:03:35.795Z,8.27
2023-11-14T06:06:38.078Z,12.30
2023-11-14T06:09:40.219Z,11.10
2023-11-14T06:12:42.947Z,13.45
2023-11-14T06:15:45.144Z,12.57
2023-11-14T06:18:47.302Z,10.38
2023-11-14T06:21:49.423Z,11.23
2023-11-14T06:24:51.519Z,11.75
2023-11-14T06:27:53.757Z,9.47
2023-11-14T06:30:56.613Z,8.88
2023-11-14T06:33:58.945Z,9.75
2023-11-14T06:37:01.218Z,13.47
2023-11-14T06:40:03.743Z,14.18
2023-11-14T06:43:07.337Z,8.90
2023-11-14T06:46:09.560Z,11.55
2023-11-14T06:49:11.732Z,10.10
2023-11-14T06:52:13.980Z,8.45
2023-11-14T06:55:16.347Z,7.43
2023-11-14T06:58:20.691Z,10.17
2023-11-14T07:01:23.236Z,8.63
2023-11-14T07:04:27.332Z,9.38
2023-11-14T07:07:30.431Z,12.45
2023-11-14T07:10:34.426Z,12.77
2023-11-14T07:13:36.497Z,8.18
2023-11-14T07:16:38.661Z,14.70
2023-11-14T07:19:40.907Z,9.70
2023-11-14T07:22:43.438Z,14.40
2023-11-14T07:25:46.093Z,10.00
2023-11-14T07:28:48.295Z,11.15
2023-11-14T07:31:50.977Z,7.57
2023-11-14T07:34:54.498Z,6.70
2023-11-14T07:37:57.265Z,10.70
2023-11-14T07:41:00.030Z,13.48
2023-11-14T07:44:02.550Z,11.07
2023-11-14T07:47:11.916Z,14.43
2023-11-14T07:50:20.790Z,13.27
2023-11-14T07:53:23.169Z,10.30
2023-11-14T07:56:26.050Z,10.88
2023-11-14T07:59:28.221Z,11.97
2023-11-14T08:02:31.930Z,8.57
2023-11-14T08:05:34.739Z,8.73
2023-11-14T08:08:37.077Z,10.10
2023-11-14T08:11:41.104Z,7.60
2023-11-14T08:14:43.268Z,9.05
2023-11-14T08:17:45.415Z,6.15
2023-11-14T08:20:47.816Z,9.23
2023-11-14T08:23:50.995Z,7.30
2023-11-14T08:26:53.373Z,9.03
2023-11-14T08:29:55.606Z,11.75
2023-11-14T08:32:57.997Z,8.10
2023-11-14T08:36:00.266Z,6.20
2023-11-14T08:39:03.288Z,7.05
2023-11-14T08:42:08.038Z,8.20
2023-11-14T08:45:10.325Z,8.05
2023-11-14T08:48:12.669Z,8.70
2023-11-14T08:51:17.685Z,10.50
2023-11-14T08:54:20.087Z,10.77
2023-11-14T08:57:22.355Z,11.00
2023-11-14T09:00:24.481Z,8.70
2023-11-14T09:03:26.671Z,8.65
2023-11-14T09:06:28.870Z,9.45
2023-11-14T09:09:31.404Z,9.00
2023-11-14T09:12:34.290Z,6.50
2023-11-14T09:15:36.524Z,8.52
2023-11-14T09:18:40.343Z,8.40
2023-11-14T09:21:42.802Z,8.27
2023-11-14T09:24:44.998Z,7.78
2023-11-14T09:27:47.391Z,7.30
2023-11-14T09:30:49.572Z,8.20
2023-11-14T09:33:52.953Z,9.83
2023-11-14T09:36:55.697Z,9.25
2023-11-14T09:39:58.015Z,10.95
2023-11-14T09:43:00.096Z,10.25
2023-11-14T09:46:03.239Z,6.43
2023-11-14T09:49:05.669Z,6.10
2023-11-14T09:52:08.020Z,5.65
2023-11-14T09:55:12.987Z,7.22
2023-11-14T09:58:15.139Z,3.85
2023-11-14T10:01:17.377Z,4.97
2023-11-14T10:04:19.754Z,6.28
2023-11-14T10:07:23.802Z,5.07
2023-11-14T10:10:26.006Z,5.65
2023-11-14T10:13:28.527Z,5.90
2023-11-14T10:16:31.119Z,4.73
2023-11-14T10:19:33.435Z,7.97
2023-11-14T10:22:36.083Z,6.47
2023-11-14T10:25:38.549Z,4.30
2023-11-14T10:28:56.378Z,3.45
2023-11-14T10:31:59.281Z,5.10
2023-11-14T10:35:18.834Z,4.50
2023-11-14T10:38:23.853Z,4.43
2023-11-14T10:41:27.609Z,5.50
2023-11-14T10:44:30.128Z,5.13
2023-11-14T10:47:40.037Z,4.50
2023-11-14T10:50:44.054Z,4.43
2023-11-14T10:53:46.838Z,3.30
2023-11-14T10:56:55.451Z,5.15
2023-11-14T11:00:01.973Z,4.00
2023-11-14T11:03:07.885Z,4.73
2023-11-14T11:06:10.427Z,3.83
2023-11-14T11:09:13.297Z,3.60
2023-11-14T11:12:15.933Z,4.05
2023-11-14T11:15:18.310Z,3.53
2023-11-14T11:18:36.271Z,5.32
2023-11-14T11:21:38.585Z,3.70
2023-11-14T11:25:03.072Z,3.40
2023-11-14T11:28:23.606Z,2.90
2023-11-14T11:31:25.997Z,2.97
2023-11-14T11:34:29.416Z,4.55
2023-11-14T11:37:55.757Z,4.43
2023-11-14T11:41:12.657Z,6.27
2023-11-14T11:44:17.848Z,4.87
2023-11-14T11:47:33.251Z,3.65
2023-11-14T11:50:35.744Z,4.03
2023-11-14T11:53:40.625Z,4.97
2023-11-14T11:56:42.922Z,6.07
2023-11-14T11:59:45.051Z,7.10
2023-11-14T12:02:47.598Z,4.68
2023-11-14T12:05:50.932Z,3.40
2023-11-14T12:08:55.372Z,4.35
2023-11-14T12:11:58.111Z,2.10
2023-11-14T12:15:00.595Z,4.97
2023-11-14T12:18:04.630Z,4.13
2023-11-14T12:21:07.488Z,3.45
2023-11-14T12:24:09.762Z,2.90
2023-11-14T12:27:12.879Z,3.60
2023-11-14T12:30:15.570Z,5.55
2023-11-14T12:33:18.241Z,4.32
2023-11-14T12:36:27.077Z,3.28
2023-11-14T12:39:29.228Z,4.65
2023-11-14T12:42:33.635Z,3.87
2023-11-14T12:45:48.454Z,4.30
2023-11-14T12:49:13.685Z,3.53
2023-11-14T12:52:16.130Z,2.88
2023-11-14T12:55:18.238Z,7.07
2023-11-14T12:58:20.400Z,4.33
2023-11-14T13:01:25.818Z,3.33
2023-11-14T13:04:28.204Z,4.88
2023-11-14T13:07:30.383Z,6.57
2023-11-14T13:10:32.568Z,3.90
2023-11-14T13:13:34.922Z,5.03
2023-11-14T13:16:38.134Z,4.53
2023-11-14T13:19:40.554Z,5.72
2023-11-14T13:22:44.613Z,3.97
2023-11-14T13:25:46.924Z,3.53
2023-11-14T13:28:49.234Z,4.47
2023-11-14T13:31:51.416Z,4.72
2023-11-14T13:34:53.755Z,6.07
2023-11-14T13:37:55.944Z,6.90
2023-11-14T13:40:58.120Z,4.13
2023-11-14T13:44:00.322Z,3.67
2023-11-14T13:47:02.925Z,4.55
2023-11-14T13:50:06.977Z,7.40
2023-11-14T13:53:09.167Z,6.40
2023-11-14T13:56:12.014Z,7.53
2023-11-14T13:59:15.747Z,6.80
2023-11-14T14:02:18.718Z,4.80
2023-11-14T14:05:21.101Z,5.40
2023-11-14T14:08:23.382Z,9.30
2023-11-14T14:11:26.006Z,7.43
2023-11-14T14:14:28.142Z,6.47
2023-11-14T14:17:32.697Z,7.80
2023-11-14T14:20:35.079Z,6.03
2023-11-14T14:23:37.440Z,7.78
2023-11-14T14:26:40.036Z,7.57
2023-11-14T14:29:43.023Z,10.97
2023-11-14T14:32:48.738Z,7.30
2023-11-14T14:35:53.718Z,4.20
2023-11-14T14:38:56.157Z,4.60
2023-11-14T14:41:58.264Z,6.83
2023-11-14T14:45:00.552Z,8.10
2023-11-14T14:48:02.834Z,7.93
2023-11-14T14:51:05.514Z,8.43
2023-11-14T14:54:07.635Z,11.32
2023-11-14T14:57:09.844Z,22.53
2023-11-14T15:00:19.560Z,12.57
2023-11-14T15:03:22.591Z,11.13
2023-11-14T15:06:25.126Z,13.88
2023-11-14T15:09:29.166Z,12.90
2023-11-14T15:12:31.307Z,12.40
2023-11-14T15:15:33.433Z,14.38
2023-11-14T15:18:36.983Z,10.48
2023-11-14T15:21:40.409Z,8.07
2023-11-14T15:24:43.768Z,10.93
2023-11-14T15:27:45.939Z,14.05
2023-11-14T15:30:48.176Z,9.27
2023-11-14T15:33:51.600Z,9.23
2023-11-14T15:36:53.767Z,14.20
2023-11-14T15:39:57.342Z,11.05
2023-11-14T15:43:00.500Z,10.00
2023-11-14T15:46:06.256Z,9.87
2023-11-14T15:49:08.419Z,8.93
2023-11-14T15:52:10.552Z,10.57
2023-11-14T15:55:12.743Z,10.75
2023-11-14T15:58:14.915Z,7.77
2023-11-14T16:01:18.335Z,10.05
2023-11-14T16:04:20.927Z,10.50
2023-11-14T16:07:23.743Z,11.00
2023-11-14T16:10:25.893Z,11.03
2023-11-14T16:13:28.826Z,15.80
2023-11-14T16:16:31.050Z,11.38
2023-11-14T16:19:38.418Z,12.67
2023-11-14T16:22:40.962Z,12.18
2023-11-14T16:25:46.791Z,9.45
2023-11-14T16:28:49.413Z,11.25
2023-11-14T16:31:51.615Z,10.70
2023-11-14T16:34:53.817Z,10.35
2023-11-14T16:37:56.065Z,9.52
2023-11-14T16:40:59.273Z,7.90
2023-11-14T16:44:01.356Z,10.90
2023-11-14T16:47:07.554Z,8.88
2023-11-14T16:50:09.852Z,9.90
2023-11-14T16:53:12.072Z,9.73
2023-11-14T16:56:14.598Z,8.57
2023-11-14T16:59:16.752Z,9.90
2023-11-14T17:02:19.004Z,15.65
2023-11-14T17:05:21.162Z,11.83
2023-11-14T17:08:23.419Z,11.43
2023-11-14T17:11:26.354Z,12.82
2023-11-14T17:14:28.466Z,10.82
2023-11-14T17:17:31.170Z,11.73
2023-11-14T17:20:33.700Z,16.13
2023-11-14T17:23:38.615Z,25.95
2023-11-14T17:26:42.211Z,20.25
2023-11-14T17:29:44.268Z,15.40
2023-11-14T17:32:47.078Z,10.95
2023-11-14T17:35:49.965Z,12.82
2023-11-14T17:38:52.204Z,8.95
2023-11-14T17:41:54.217Z,13.40
2023-11-14T17:44:56.635Z,16.47
2023-11-14T17:47:59.501Z,18.70
2023-11-14T17:51:01.857Z,26.70
2023-11-14T17:54:04.236Z,23.93
2023-11-14T17:57:09.047Z,34.22
2023-11-14T18:00:15.958Z,27.77
2023-11-14T18:03:18.616Z,30.95
2023-11-14T18:06:20.994Z,29.05
2023-11-14T18:09:28.861Z,29.13
2023-11-14T18:12:31.223Z,32.17
2023-11-14T18:15:35.185Z,30.05
2023-11-14T18:18:37.536Z,24.73
2023-11-14T18:21:39.638Z,22.95
2023-11-14T18:24:42.738Z,22.63
2023-11-14T18:27:46.358Z,26.98
2023-11-14T18:30:48.575Z,22.60
2023-11-14T18:33:50.734Z,28.17
2023-11-14T18:36:53.392Z,38.20
2023-11-14T18:39:55.614Z,50.05
2023-11-14T18:42:58.078Z,43.47
2023-11-14T18:46:00.753Z,33.38
2023-11-14T18:49:03.671Z,26.35
2023-11-14T18:52:05.745Z,26.00
2023-11-14T18:55:09.626Z,33.60
2023-11-14T18:58:13.627Z,32.15
2023-11-14T19:01:16.423Z,31.17
2023-11-14T19:04:21.181Z,22.73
2023-11-14T19:07:27.715Z,23.93
2023-11-14T19:10:30.304Z,20.52
2023-11-14T19:13:34.267Z,20.08
2023-11-14T19:16:36.777Z,12.48
2023-11-14T19:19:38.821Z,15.27
2023-11-14T19:23:34.595Z,19.63
2023-11-14T19:26:07.254Z,15.65
2023-11-14T19:29:09.305Z,12.55
2023-11-14T19:32:11.530Z,15.80
2023-11-14T19:35:13.939Z,13.35
2023-11-14T19:38:16.208Z,12.45
2023-11-14T19:41:18.420Z,15.77
2023-11-14T19:44:21.996Z,10.83
2023-11-14T19:47:24.259Z,10.88
2023-11-14T19:50:26.455Z,8.68
2023-11-14T19:53:28.621Z,7.10
2023-11-14T19:56:31.214Z,5.07
2023-11-14T19:59:33.762Z,7.45
2023-11-14T20:02:35.928Z,10.65
2023-11-14T20:05:38.187Z,8.77
2023-11-14T20:08:40.629Z,6.20
2023-11-14T20:11:42.681Z,6.93
2023-11-14T20:14:44.786Z,11.05
2023-11-14T20:17:47.064Z,8.38
2023-11-14T20:20:49.304Z,9.37
2023-11-14T20:23:51.455Z,13.70
2023-11-14T20:26:53.808Z,10.32
2023-11-14T20:29:56.054Z,8.98
2023-11-14T20:32:58.245Z,10.50
2023-11-14T20:36:00.783Z,7.43
2023-11-14T20:42:33.580Z,7.10
2023-11-14T20:45:35.686Z,13.27
2023-11-14T20:48:38.488Z,9.65
2023-11-14T20:51:40.599Z,10.70
2023-11-14T20:54:42.822Z,9.60
2023-11-14T20:57:45.009Z,11.37
2023-11-14T21:00:47.459Z,12.07
2023-11-14T21:03:49.711Z,13.05
2023-11-14T21:06:54.872Z,14.57
2023-11-14T21:09:56.925Z,15.27
2023-11-14T21:12:59.049Z,14.65
2023-11-14T21:16:01.169Z,13.60
2023-11-14T21:19:03.459Z,15.33
2023-11-14T21:22:05.541Z,21.90
2023-11-14T21:25:08.552Z,17.83
2023-11-14T21:28:10.954Z,17.02
2023-11-14T21:31:15.298Z,19.67
2023-11-14T21:34:17.491Z,18.02
2023-11-14T21:37:19.695Z,19.95
2023-11-14T21:40:21.855Z,16.10
2023-11-14T21:43:23.945Z,19.75
2023-11-14T21:46:26.133Z,19.13
2023-11-14T21:49:28.282Z,17.35
2023-11-14T21:52:30.427Z,14.83
2023-11-14T21:55:32.545Z,15.55
2023-11-14T21:58:34.620Z,17.27
2023-11-14T22:01:37.468Z,18.10
2023-11-14T22:04:39.541Z,16.33
2023-11-14T22:07:41.610Z,17.98
2023-11-14T22:10:43.716Z,16.70
2023-11-14T22:13:46.376Z,13.07
2023-11-14T22:16:48.515Z,16.80
2023-11-14T22:19:50.558Z,13.35
2023-11-14T22:22:52.657Z,19.30
2023-11-14T22:25:55.087Z,14.63
2023-11-14T22:28:58.845Z,15.07
2023-11-14T22:32:02.281Z,17.23
2023-11-14T22:35:05.166Z,16.27
2023-11-14T22:38:07.257Z,14.55
2023-11-14T22:41:13.458Z,19.38
2023-11-14T22:44:15.570Z,16.85
2023-11-14T22:47:18.369Z,16.93
2023-11-14T22:50:20.505Z,14.18
2023-11-14T22:53:22.743Z,13.77
2023-11-14T22:56:24.855Z,14.93
2023-11-14T22:59:27.118Z,12.80
2023-11-14T23:02:29.224Z,14.68
2023-11-14T23:05:32.061Z,17.88
2023-11-14T23:08:34.242Z,16.87
2023-11-14T23:11:36.440Z,18.30
2023-11-14T23:14:38.883Z,21.02
2023-11-14T23:17:41.255Z,14.15
2023-11-14T23:20:43.482Z,21.27
2023-11-14T23:23:45.611Z,19.92
2023-11-14T23:26:47.773Z,11.98
2023-11-14T23:29:49.948Z,14.40
2023-11-14T23:32:52.091Z,11.23
2023-11-14T23:35:54.296Z,10.57
2023-11-14T23:38:56.670Z,17.25
2023-11-14T23:41:58.790Z,23.70
2023-11-14T23:45:01.005Z,15.68
2023-11-14T23:48:03.123Z,12.27
2023-11-14T23:51:05.580Z,12.60
2023-11-14T23:54:07.646Z,11.75
2023-11-14T23:57:09.979Z,16.05
